createdAt,value
2023-04-16T00:00:28.282Z,76.83
2023-04-16T00:02:56.602Z,70.67
2023-04-16T00:05:24.567Z,82.23
2023-04-16T00:07:52.829Z,76.10
2023-04-16T00:10:20.838Z,71.87
2023-04-16T00:12:49.209Z,79.27
2023-04-16T00:15:16.870Z,81.87
2023-04-16T00:17:46.076Z,86.33
2023-04-16T00:20:14.234Z,74.07
2023-04-16T00:22:42.340Z,76.40
2023-04-16T00:25:10.730Z,72.77
2023-04-16T00:27:38.777Z,67.70
2023-04-16T00:30:07.331Z,77.07
2023-04-16T00:32:35.206Z,69.23
2023-04-16T00:35:05.349Z,76.40
2023-04-16T00:37:33.280Z,77.27
2023-04-16T00:40:01.215Z,88.47
2023-04-16T00:42:29.318Z,76.10
2023-04-16T00:44:57.018Z,75.50
2023-04-16T00:47:24.870Z,73.00
2023-04-16T00:49:53.966Z,75.33
2023-04-16T00:52:23.099Z,67.60
2023-04-16T00:54:52.692Z,69.73
2023-04-16T00:57:24.062Z,79.10
2023-04-16T00:59:52.436Z,75.30
2023-04-16T01:02:20.525Z,75.50
2023-04-16T01:04:51.883Z,82.53
2023-04-16T01:07:19.768Z,76.17
2023-04-16T01:09:48.801Z,80.03
2023-04-16T01:12:17.021Z,79.13
2023-04-16T01:14:44.888Z,78.80
2023-04-16T01:17:12.740Z,83.13
2023-04-16T01:19:40.904Z,75.83
2023-04-16T01:22:10.250Z,76.80
2023-04-16T01:24:40.552Z,76.60
2023-04-16T01:27:11.368Z,92.83
2023-04-16T01:29:39.261Z,81.90
2023-04-16T01:32:07.268Z,82.70
2023-04-16T01:34:37.677Z,72.17
2023-04-16T01:37:06.190Z,86.83
2023-04-16T01:39:35.731Z,71.40
2023-04-16T01:42:03.494Z,78.00
2023-04-16T01:44:32.038Z,80.97
2023-04-16T01:47:00.383Z,77.53
2023-04-16T01:49:28.322Z,71.67
2023-04-16T01:51:56.330Z,86.07
2023-04-16T01:54:25.511Z,81.47
2023-04-16T01:56:54.706Z,71.57
2023-04-16T01:59:22.829Z,76.57
2023-04-16T02:01:51.239Z,76.53
2023-04-16T02:04:18.986Z,70.90
2023-04-16T02:06:46.944Z,71.40
2023-04-16T02:09:15.400Z,76.17
2023-04-16T02:11:44.009Z,74.70
2023-04-16T02:14:13.308Z,76.47
2023-04-16T02:16:41.167Z,72.87
2023-04-16T02:19:31.941Z,75.83
2023-04-16T02:22:01.393Z,74.40
2023-04-16T02:24:29.081Z,74.57
2023-04-16T02:26:58.166Z,67.50
2023-04-16T02:29:27.322Z,68.40
2023-04-16T02:32:03.088Z,70.30
2023-04-16T02:34:34.699Z,72.67
2023-04-16T02:37:02.501Z,72.47
2023-04-16T02:39:30.240Z,75.83
2023-04-16T02:41:59.513Z,68.53
2023-04-16T02:44:29.182Z,86.80
2023-04-16T02:46:57.171Z,67.10
2023-04-16T02:49:25.044Z,74.87
2023-04-16T02:51:52.807Z,74.37
2023-04-16T02:54:20.558Z,86.43
2023-04-16T02:56:48.607Z,81.97
2023-04-16T02:59:16.646Z,73.70
2023-04-16T03:01:45.811Z,83.37
2023-04-16T03:04:13.949Z,78.63
2023-04-16T03:06:41.896Z,85.50
2023-04-16T03:09:09.919Z,86.00
2023-04-16T03:11:39.475Z,88.77
2023-04-16T03:14:07.307Z,100.50
2023-04-16T03:16:34.985Z,86.40
2023-04-16T03:19:04.282Z,88.33
2023-04-16T03:21:32.274Z,97.10
2023-04-16T03:24:00.218Z,102.20
2023-04-16T03:26:28.187Z,98.40
2023-04-16T03:28:56.625Z,101.00
2023-04-16T03:31:24.866Z,105.10
2023-04-16T03:33:53.419Z,97.57
2023-04-16T03:36:23.299Z,105.27
2023-04-16T03:38:51.166Z,101.50
2023-04-16T03:41:19.101Z,100.37
2023-04-16T03:43:46.869Z,99.87
2023-04-16T03:46:14.570Z,107.77
2023-04-16T03:48:42.457Z,108.93
2023-04-16T03:51:10.413Z,113.40
2023-04-16T03:53:41.277Z,105.93
2023-04-16T03:56:09.486Z,123.53
2023-04-16T03:58:37.265Z,105.13
2023-04-16T04:01:05.396Z,103.33
2023-04-16T04:03:33.492Z,107.63
2023-04-16T04:06:07.537Z,115.83
2023-04-16T04:08:35.646Z,98.53
2023-04-16T04:11:06.466Z,105.43
2023-04-16T04:13:36.041Z,106.93
2023-04-16T04:16:04.880Z,104.60
2023-04-16T04:18:33.313Z,109.00
2023-04-16T04:21:01.873Z,115.63
2023-04-16T04:23:31.181Z,114.13
2023-04-16T04:25:59.410Z,104.77
2023-04-16T04:28:28.653Z,104.33
2023-04-16T04:30:56.471Z,120.20
2023-04-16T04:33:24.259Z,105.97
2023-04-16T04:35:55.898Z,109.07
2023-04-16T04:38:25.245Z,105.40
2023-04-16T04:40:53.614Z,103.10
2023-04-16T04:43:22.818Z,113.63
2023-04-16T04:45:52.670Z,116.87
2023-04-16T04:48:26.453Z,99.30
2023-04-16T04:50:54.973Z,110.07
2023-04-16T04:53:22.701Z,119.07
2023-04-16T04:55:53.148Z,102.90
2023-04-16T04:58:23.629Z,108.23
2023-04-16T05:00:53.811Z,110.73
2023-04-16T05:03:44.664Z,107.63
2023-04-16T05:06:12.652Z,109.30
2023-04-16T05:08:40.365Z,116.00
2023-04-16T05:11:08.404Z,113.30
2023-04-16T05:13:36.067Z,111.47
2023-04-16T05:16:06.221Z,106.43
2023-04-16T05:18:34.394Z,110.73
2023-04-16T05:21:02.055Z,127.57
2023-04-16T05:23:29.780Z,116.80
2023-04-16T05:25:57.666Z,133.80
2023-04-16T05:28:25.604Z,106.63
2023-04-16T05:30:53.610Z,102.33
2023-04-16T05:33:22.857Z,105.87
2023-04-16T05:35:50.645Z,101.10
2023-04-16T05:38:18.521Z,98.90
2023-04-16T05:40:46.345Z,114.70
2023-04-16T05:43:14.087Z,102.47
2023-04-16T05:45:41.883Z,102.27
2023-04-16T05:48:10.179Z,101.60
2023-04-16T05:50:39.614Z,95.70
2023-04-16T05:53:08.347Z,107.37
2023-04-16T05:55:36.802Z,115.77
2023-04-16T05:58:05.106Z,107.40
2023-04-16T06:00:33.195Z,101.03
2023-04-16T06:03:01.494Z,108.17
2023-04-16T06:05:29.965Z,110.13
2023-04-16T06:07:59.219Z,115.60
2023-04-16T06:10:27.304Z,91.63
2023-04-16T06:12:55.195Z,113.03
2023-04-16T06:15:22.920Z,95.37
2023-04-16T06:17:50.926Z,98.37
2023-04-16T06:20:19.068Z,116.83
2023-04-16T06:22:46.929Z,94.23
2023-04-16T06:25:18.103Z,99.33
2023-04-16T06:27:46.134Z,103.53
2023-04-16T06:30:14.619Z,99.63
2023-04-16T06:32:43.413Z,96.27
2023-04-16T06:35:11.248Z,104.00
2023-04-16T06:37:38.988Z,91.17
2023-04-16T06:40:07.253Z,93.73
2023-04-16T06:42:36.505Z,95.90
2023-04-16T06:45:04.596Z,99.30
2023-04-16T06:47:32.818Z,97.23
2023-04-16T06:50:00.622Z,100.70
2023-04-16T06:52:29.792Z,90.03
2023-04-16T06:54:57.625Z,104.60
2023-04-16T06:57:25.421Z,95.17
2023-04-16T06:59:54.589Z,90.90
2023-04-16T07:02:22.839Z,91.10
2023-04-16T07:04:52.260Z,88.80
2023-04-16T07:07:20.122Z,97.00
2023-04-16T07:09:47.937Z,94.07
2023-04-16T07:12:15.894Z,100.73
2023-04-16T07:14:43.578Z,121.70
2023-04-16T07:17:12.967Z,90.00
2023-04-16T07:19:41.027Z,91.17
2023-04-16T07:22:09.032Z,97.17
2023-04-16T07:24:37.214Z,91.37
2023-04-16T07:27:05.127Z,78.30
2023-04-16T07:29:33.204Z,85.47
2023-04-16T07:32:01.541Z,110.70
2023-04-16T07:34:30.998Z,91.73
2023-04-16T07:36:58.936Z,85.50
2023-04-16T07:39:26.891Z,102.97
2023-04-16T07:41:54.835Z,94.17
2023-04-16T07:44:22.502Z,98.63
2023-04-16T07:46:50.556Z,101.80
2023-04-16T07:49:18.779Z,96.27
2023-04-16T07:51:48.096Z,87.90
2023-04-16T07:54:16.514Z,85.13
2023-04-16T07:56:44.209Z,92.57
2023-04-16T07:59:21.940Z,99.33
2023-04-16T08:01:51.107Z,87.37
2023-04-16T08:04:24.347Z,85.27
2023-04-16T08:06:54.474Z,77.80
2023-04-16T08:09:24.036Z,76.53
2023-04-16T08:11:52.165Z,87.73
2023-04-16T08:14:19.979Z,88.90
2023-04-16T08:16:47.701Z,88.13
2023-04-16T08:19:15.486Z,81.00
2023-04-16T08:21:43.891Z,100.27
2023-04-16T08:24:12.898Z,97.73
2023-04-16T08:26:41.089Z,91.50
2023-04-16T08:29:09.157Z,92.50
2023-04-16T08:31:37.199Z,89.67
2023-04-16T08:34:04.935Z,92.40
2023-04-16T08:36:33.249Z,82.43
2023-04-16T08:39:01.342Z,82.90
2023-04-16T08:41:31.996Z,81.87
2023-04-16T08:44:01.530Z,73.87
2023-04-16T08:46:30.706Z,93.57
2023-04-16T08:49:00.036Z,94.03
2023-04-16T08:51:31.116Z,83.87
2023-04-16T08:54:01.020Z,94.53
2023-04-16T08:56:31.001Z,80.20
2023-04-16T08:59:02.166Z,83.37
2023-04-16T09:01:30.462Z,90.23
2023-04-16T09:03:58.353Z,94.17
2023-04-16T09:06:26.882Z,82.73
2023-04-16T09:08:55.275Z,78.50
2023-04-16T09:11:23.098Z,89.90
2023-04-16T09:13:52.872Z,85.03
2023-04-16T09:16:21.557Z,92.73
2023-04-16T09:18:52.300Z,90.67
2023-04-16T09:21:22.732Z,96.77
2023-04-16T09:23:53.965Z,105.83
2023-04-16T09:26:22.161Z,122.83
2023-04-16T09:28:50.945Z,164.80
2023-04-16T09:31:21.017Z,130.30
2023-04-16T09:34:02.749Z,106.60
2023-04-16T09:36:31.205Z,110.30
2023-04-16T09:38:59.252Z,83.17
2023-04-16T09:41:28.316Z,80.27
2023-04-16T09:43:57.446Z,82.77
2023-04-16T09:46:30.818Z,75.13
2023-04-16T09:48:58.824Z,104.03
2023-04-16T09:51:28.302Z,79.20
2023-04-16T09:54:00.166Z,79.40
2023-04-16T09:56:28.993Z,77.23
2023-04-16T09:59:01.516Z,90.53
2023-04-16T10:01:31.812Z,92.67
2023-04-16T10:04:01.624Z,84.83
2023-04-16T10:06:30.171Z,80.37
2023-04-16T10:08:58.134Z,82.87
2023-04-16T10:11:26.408Z,82.07
2023-04-16T10:13:54.258Z,70.27
2023-04-16T10:16:23.065Z,78.10
2023-04-16T10:18:53.000Z,81.57
2023-04-16T10:21:21.936Z,83.90
2023-04-16T10:23:49.776Z,87.63
2023-04-16T10:26:18.780Z,71.40
2023-04-16T10:28:46.788Z,60.00
2023-04-16T10:31:14.966Z,77.10
2023-04-16T10:33:43.127Z,69.40
2023-04-16T10:36:13.378Z,68.80
2023-04-16T10:38:41.802Z,76.90
2023-04-16T10:41:09.899Z,84.37
2023-04-16T10:43:41.921Z,81.87
2023-04-16T10:46:19.978Z,72.63
2023-04-16T10:48:53.965Z,71.13
2023-04-16T10:51:28.021Z,76.73
2023-04-16T10:53:56.737Z,86.10
2023-04-16T10:56:25.006Z,87.80
2023-04-16T10:58:54.227Z,82.23
2023-04-16T11:01:27.635Z,86.00
2023-04-16T11:03:55.648Z,115.13
2023-04-16T11:06:26.909Z,89.03
2023-04-16T11:08:55.498Z,73.27
2023-04-16T11:11:23.329Z,69.53
2023-04-16T11:13:55.820Z,93.67
2023-04-16T11:16:23.613Z,72.93
2023-04-16T11:18:51.887Z,67.70
2023-04-16T11:21:20.532Z,62.17
2023-04-16T11:23:50.547Z,72.43
2023-04-16T11:26:24.950Z,97.40
2023-04-16T11:28:52.900Z,95.67
2023-04-16T11:31:20.654Z,64.70
2023-04-16T11:33:49.570Z,54.33
2023-04-16T11:36:17.807Z,62.83
2023-04-16T11:38:45.820Z,66.23
2023-04-16T11:41:21.998Z,61.93
2023-04-16T11:43:49.878Z,59.77
2023-04-16T11:46:27.037Z,54.50
2023-04-16T11:48:56.734Z,50.40
2023-04-16T11:51:24.757Z,49.93
2023-04-16T11:53:53.508Z,46.77
2023-04-16T11:56:29.614Z,45.60
2023-04-16T11:59:10.143Z,47.67
2023-04-16T12:01:40.087Z,47.63
2023-04-16T12:04:08.253Z,42.93
2023-04-16T12:06:36.467Z,54.07
2023-04-16T12:09:19.752Z,52.57
2023-04-16T12:11:48.906Z,44.13
2023-04-16T12:14:17.132Z,40.77
2023-04-16T12:16:45.118Z,41.90
2023-04-16T12:19:13.801Z,44.30
2023-04-16T12:21:42.157Z,61.03
2023-04-16T12:24:13.203Z,42.20
2023-04-16T12:26:41.558Z,43.37
2023-04-16T12:29:17.369Z,44.37
2023-04-16T12:31:45.253Z,42.43
2023-04-16T12:34:15.219Z,46.07
2023-04-16T12:36:43.247Z,43.50
2023-04-16T12:39:11.986Z,38.97
2023-04-16T12:41:40.600Z,51.20
2023-04-16T12:44:12.091Z,41.80
2023-04-16T12:46:41.839Z,34.17
2023-04-16T12:49:10.300Z,36.60
2023-04-16T12:51:38.973Z,32.77
2023-04-16T12:54:07.424Z,37.77
2023-04-16T12:56:35.457Z,39.23
2023-04-16T12:59:03.507Z,39.43
2023-04-16T13:01:31.422Z,44.07
2023-04-16T13:04:02.013Z,48.13
2023-04-16T13:06:30.167Z,52.73
2023-04-16T13:08:57.992Z,53.53
2023-04-16T13:11:26.115Z,37.33
2023-04-16T13:13:54.329Z,33.17
2023-04-16T13:16:22.521Z,39.73
2023-04-16T13:18:50.562Z,49.30
2023-04-16T13:21:19.861Z,36.67
2023-04-16T13:23:47.637Z,32.70
2023-04-16T13:26:16.310Z,36.97
2023-04-16T13:28:44.175Z,47.47
2023-04-16T13:31:11.966Z,47.60
2023-04-16T13:33:39.672Z,45.20
2023-04-16T13:36:07.983Z,41.83
2023-04-16T13:38:37.034Z,34.93
2023-04-16T13:41:05.985Z,44.50
2023-04-16T13:43:33.700Z,38.40
2023-04-16T13:46:01.914Z,44.37
2023-04-16T13:48:30.207Z,40.13
2023-04-16T13:50:57.964Z,44.43
2023-04-16T13:53:25.667Z,44.20
2023-04-16T13:55:54.766Z,46.73
2023-04-16T13:58:22.747Z,39.87
2023-04-16T14:00:50.438Z,34.60
2023-04-16T14:03:18.259Z,38.10
2023-04-16T14:05:46.165Z,37.17
2023-04-16T14:08:14.760Z,39.27
2023-04-16T14:10:42.510Z,37.67
2023-04-16T14:13:12.547Z,41.27
2023-04-16T14:15:40.573Z,48.13
2023-04-16T14:18:08.744Z,38.00
2023-04-16T14:20:37.061Z,40.93
2023-04-16T14:23:05.023Z,40.20
2023-04-16T14:25:33.091Z,43.13
2023-04-16T14:28:00.985Z,39.13
2023-04-16T14:30:30.154Z,35.80
2023-04-16T14:32:59.369Z,35.13
2023-04-16T14:35:27.536Z,29.57
2023-04-16T14:37:55.903Z,33.70
2023-04-16T14:40:23.680Z,30.23
2023-04-16T14:42:51.392Z,29.13
2023-04-16T14:45:19.270Z,29.60
2023-04-16T14:47:50.110Z,35.23
2023-04-16T14:50:17.962Z,30.00
2023-04-16T14:52:45.870Z,29.83
2023-04-16T14:55:14.413Z,30.27
2023-04-16T14:57:42.149Z,30.53
2023-04-16T15:00:11.610Z,30.50
2023-04-16T15:02:39.452Z,27.00
2023-04-16T15:05:10.456Z,27.90
2023-04-16T15:07:38.484Z,27.50
2023-04-16T15:10:06.772Z,30.70
2023-04-16T15:12:34.845Z,29.47
2023-04-16T15:15:03.093Z,30.13
2023-04-16T15:17:31.106Z,30.30
2023-04-16T15:19:59.656Z,29.03
2023-04-16T15:22:28.690Z,33.50
2023-04-16T15:24:56.401Z,28.20
2023-04-16T15:27:24.511Z,29.20
2023-04-16T15:29:53.858Z,30.30
2023-04-16T15:32:21.825Z,27.77
2023-04-16T15:34:49.685Z,29.07
2023-04-16T15:37:17.540Z,28.07
2023-04-16T15:39:47.068Z,29.70
2023-04-16T15:42:15.686Z,35.80
2023-04-16T15:44:43.423Z,33.37
2023-04-16T15:47:11.467Z,31.90
2023-04-16T15:49:39.188Z,32.70
2023-04-16T15:52:06.975Z,30.83
2023-04-16T15:54:34.767Z,31.43
2023-04-16T15:57:04.332Z,29.43
2023-04-16T15:59:32.617Z,31.13
2023-04-16T16:02:02.615Z,36.00
2023-04-16T16:04:30.540Z,30.03
2023-04-16T16:06:58.421Z,30.30
2023-04-16T16:09:26.941Z,31.93
2023-04-16T16:11:55.249Z,33.40
2023-04-16T16:14:24.408Z,33.20
2023-04-16T16:16:53.898Z,31.67
2023-04-16T16:19:21.710Z,39.43
2023-04-16T16:21:49.815Z,31.13
2023-04-16T16:24:17.537Z,27.23
2023-04-16T16:26:45.708Z,28.50
2023-04-16T16:29:13.421Z,31.67
2023-04-16T16:31:42.628Z,35.43
2023-04-16T16:34:17.104Z,29.50
2023-04-16T16:36:48.672Z,30.30
2023-04-16T16:39:17.392Z,31.07
2023-04-16T16:41:45.579Z,30.83
2023-04-16T16:44:13.287Z,27.37
2023-04-16T16:46:43.212Z,27.27
2023-04-16T16:49:11.555Z,28.77
2023-04-16T16:51:39.388Z,30.10
2023-04-16T16:54:08.017Z,28.00
2023-04-16T16:56:35.681Z,29.70
2023-04-16T16:59:04.030Z,30.47
2023-04-16T17:01:34.955Z,91.13
2023-04-16T17:04:04.373Z,49.80
2023-04-16T17:06:33.225Z,37.70
2023-04-16T17:09:01.396Z,35.30
2023-04-16T17:11:29.554Z,34.20
2023-04-16T17:13:57.246Z,49.80
2023-04-16T17:16:25.010Z,56.13
2023-04-16T17:18:53.699Z,30.90
2023-04-16T17:21:22.838Z,44.53
2023-04-16T17:23:51.288Z,35.03
2023-04-16T17:26:19.029Z,37.30
2023-04-16T17:28:46.859Z,35.07
2023-04-16T17:31:14.835Z,33.77
2023-04-16T17:33:42.537Z,37.97
2023-04-16T17:36:10.410Z,35.73
2023-04-16T17:38:40.802Z,38.33
2023-04-16T17:41:09.030Z,41.33
2023-04-16T17:43:36.737Z,36.70
2023-04-16T17:46:04.814Z,35.83
2023-04-16T17:48:32.713Z,33.90
2023-04-16T17:51:00.386Z,33.20
2023-04-16T17:53:29.248Z,29.20
2023-04-16T17:55:58.386Z,32.00
2023-04-16T17:58:26.870Z,30.50
2023-04-16T18:00:54.835Z,35.80
2023-04-16T18:03:22.770Z,28.70
2023-04-16T18:05:50.820Z,29.73
2023-04-16T18:08:19.071Z,31.57
2023-04-16T18:10:47.067Z,45.70
2023-04-16T18:13:16.216Z,33.37
2023-04-16T18:15:44.169Z,34.13
2023-04-16T18:18:11.952Z,34.90
2023-04-16T18:20:39.688Z,39.97
2023-04-16T18:23:07.790Z,33.63
2023-04-16T18:25:35.680Z,37.40
2023-04-16T18:28:05.111Z,34.63
2023-04-16T18:30:35.532Z,37.00
2023-04-16T18:35:34.049Z,32.00
2023-04-16T18:38:02.329Z,31.03
2023-04-16T18:40:30.375Z,41.40
2023-04-16T18:42:58.039Z,34.70
2023-04-16T18:47:58.709Z,38.10
2023-04-16T18:50:26.676Z,38.70
2023-04-16T18:52:54.312Z,37.90
2023-04-16T18:55:22.572Z,37.87
2023-04-16T18:57:50.302Z,44.10
2023-04-16T19:00:18.601Z,43.57
2023-04-16T19:02:46.597Z,38.27
2023-04-16T19:05:15.887Z,42.93
2023-04-16T19:07:43.594Z,38.47
2023-04-16T19:10:11.716Z,41.60
2023-04-16T19:12:40.212Z,37.00
2023-04-16T19:15:08.804Z,39.27
2023-04-16T19:17:39.668Z,40.07
2023-04-16T19:20:11.083Z,37.80
2023-04-16T19:22:43.262Z,37.17
2023-04-16T19:25:11.308Z,38.00
2023-04-16T19:27:39.777Z,43.33
2023-04-16T19:30:08.786Z,41.13
2023-04-16T19:32:36.768Z,42.40
2023-04-16T19:35:05.197Z,40.10
2023-04-16T19:37:33.062Z,40.43
2023-04-16T19:40:02.233Z,39.13
2023-04-16T19:42:30.220Z,44.17
2023-04-16T19:44:58.056Z,46.77
2023-04-16T19:47:25.817Z,53.43
2023-04-16T19:49:53.590Z,42.47
2023-04-16T19:52:21.344Z,41.77
2023-04-16T19:54:49.109Z,46.67
2023-04-16T19:57:18.221Z,43.50
2023-04-16T19:59:46.152Z,42.23
2023-04-16T20:02:13.827Z,48.37
2023-04-16T20:04:41.851Z,42.10
2023-04-16T20:07:09.568Z,46.73
2023-04-16T20:09:37.398Z,41.07
2023-04-16T20:12:05.373Z,40.70
2023-04-16T20:14:34.981Z,41.80
2023-04-16T20:17:02.762Z,39.57
2023-04-16T20:19:34.403Z,38.70
2023-04-16T20:22:02.097Z,44.17
2023-04-16T20:24:31.024Z,40.43
2023-04-16T20:26:58.742Z,42.80
2023-04-16T20:29:26.994Z,35.53
2023-04-16T20:31:56.018Z,39.10
2023-04-16T20:34:25.094Z,42.17
2023-04-16T20:36:54.854Z,42.97
2023-04-16T20:39:24.436Z,38.70
2023-04-16T20:41:56.789Z,44.60
2023-04-16T20:44:26.110Z,44.33
2023-04-16T20:46:54.805Z,46.53
2023-04-16T20:49:25.063Z,39.97
2023-04-16T20:51:52.853Z,35.83
2023-04-16T20:54:20.773Z,40.73
2023-04-16T20:56:50.915Z,39.30
2023-04-16T20:59:18.640Z,39.80
2023-04-16T21:01:47.452Z,35.20
2023-04-16T21:04:15.748Z,41.90
2023-04-16T21:06:44.938Z,38.53
2023-04-16T21:09:13.140Z,40.10
2023-04-16T21:11:41.524Z,36.13
2023-04-16T21:14:09.435Z,43.00
2023-04-16T21:16:37.246Z,40.30
2023-04-16T21:19:04.984Z,38.33
2023-04-16T21:21:32.987Z,42.60
2023-04-16T21:24:03.675Z,40.10
2023-04-16T21:26:31.569Z,40.17
2023-04-16T21:28:59.528Z,40.83
2023-04-16T21:31:27.692Z,35.47
2023-04-16T21:33:55.441Z,46.10
2023-04-16T21:36:26.459Z,37.97
2023-04-16T21:38:54.545Z,45.30
2023-04-16T21:41:23.527Z,42.33
2023-04-16T21:43:51.347Z,41.00
2023-04-16T21:46:19.970Z,44.70
2023-04-16T21:48:48.430Z,40.60
2023-04-16T21:51:16.318Z,44.27
2023-04-16T21:53:44.236Z,38.37
2023-04-16T21:56:11.917Z,39.80
2023-04-16T21:58:41.273Z,42.43
2023-04-16T22:01:10.967Z,39.37
2023-04-16T22:03:40.355Z,45.97
2023-04-16T22:06:08.935Z,43.80
2023-04-16T22:08:36.798Z,43.23
2023-04-16T22:11:04.464Z,41.70
2023-04-16T22:13:33.154Z,41.90
2023-04-16T22:18:51.666Z,39.20
2023-04-16T22:21:19.689Z,40.40
2023-04-16T22:23:47.730Z,38.17
2023-04-16T22:26:15.600Z,39.87
2023-04-16T22:28:43.426Z,41.37
2023-04-16T22:31:12.775Z,39.33
2023-04-16T22:33:40.860Z,41.20
2023-04-16T22:36:08.840Z,47.07
2023-04-16T22:38:37.934Z,40.33
2023-04-16T22:41:05.821Z,39.97
2023-04-16T22:43:35.018Z,43.40
2023-04-16T22:46:04.445Z,44.53
2023-04-16T22:48:36.352Z,45.33
2023-04-16T22:51:04.354Z,45.77
2023-04-16T22:53:32.308Z,42.80
2023-04-16T22:56:03.035Z,42.90
2023-04-16T22:58:30.840Z,39.80
2023-04-16T23:00:59.448Z,42.90
2023-04-16T23:03:27.741Z,43.83
2023-04-16T23:05:56.929Z,41.77
2023-04-16T23:08:24.611Z,47.37
2023-04-16T23:10:53.239Z,48.67
2023-04-16T23:13:20.924Z,45.53
2023-04-16T23:15:48.754Z,48.17
2023-04-16T23:18:17.031Z,49.87
2023-04-16T23:20:44.685Z,44.23
2023-04-16T23:23:13.894Z,50.03
2023-04-16T23:25:42.121Z,46.87
2023-04-16T23:28:09.977Z,44.43
2023-04-16T23:30:37.760Z,45.43
2023-04-16T23:33:05.574Z,48.53
2023-04-16T23:35:33.476Z,46.60
2023-04-16T23:38:01.219Z,46.30
2023-04-16T23:40:30.691Z,46.00
2023-04-16T23:42:58.535Z,43.90
2023-04-16T23:45:44.473Z,46.43
2023-04-16T23:48:12.277Z,41.07
2023-04-16T23:50:40.002Z,43.33
2023-04-16T23:53:08.185Z,48.23
2023-04-16T23:55:37.256Z,56.90
2023-04-16T23:58:05.232Z,45.40
